American Glory — WDA8860 — position and weather

sailwx.info

Track history (hours):
 
Tides and Currents Weather Stations Pressure Air Temp Water Temp Dewpoint Dewpoint Depression Visibility Wind Speed Wind Dir Waves Ship Positions

American Glory

Owner: AMERICAN CRUISE LINES INC, DELMAR, DE. More information available from US FCC via Universal Licensing System and Coast Guard Vessel Documentation Center.

Last reported at 2016-Aug-29 22:19 UTC. Time now 2016-Aug-29 23:36 UTC.
Position N 41°48' W 071°23'.

Length 54 m; draft 2.1 m.

Type: Ship. MMSI: 366858820.

Date/timePositionNaut miles runAvg speedWind from/ knotsBaromVisibWave heightAir tempDewpointWater temp
2016-Aug-29 22:19N 41°48' W 071°23'7 9.2
2016-Aug-29 21:34N 41°42' W 071°19'3 0.6
2016-Aug-29 16:04N 41°39' W 071°18'33 2.6
2016-Aug-29 03:30N 41°27' W 070°36'  
2016-Aug-26 04:33N 41°50' W 070°29'28 9.0
2016-Aug-26 01:29N 42°16' W 070°42'9 9.6
2016-Aug-26 00:33N 42°19' W 070°53'7 7.1
2016-Aug-25 23:33N 42°21' W 071°03'0 0.0
2016-Aug-25 22:33N 42°21' W 071°03'0 0.0
2016-Aug-25 21:33N 42°21' W 071°03'0 0.0
2016-Aug-25 20:33N 42°21' W 071°03'0 0.0
2016-Aug-25 19:33N 42°21' W 071°03'0 0.0
2016-Aug-25 18:33N 42°21' W 071°03'0 0.0
2016-Aug-25 17:33N 42°21' W 071°03'0 0.0
2016-Aug-25 16:33N 42°21' W 071°03'0 0.0
2016-Aug-25 15:33N 42°21' W 071°03'0 0.0
2016-Aug-25 14:33N 42°21' W 071°03'0 0.0
2016-Aug-25 13:33N 42°21' W 071°03'0 0.0
2016-Aug-25 12:33N 42°21' W 071°03'0 0.0
2016-Aug-25 11:33N 42°21' W 071°03'0 0.0
2016-Aug-25 10:33N 42°21' W 071°03'3 3.4
2016-Aug-25 09:33N 42°20' W 070°58'8 8.3
2016-Aug-25 08:33N 42°26' W 070°50'9 9.4
2016-Aug-25 07:33N 42°32' W 070°41'9 9.4
2016-Aug-25 06:33N 42°39' W 070°32'19 9.6
2016-Aug-25 04:33N 42°56' W 070°21'  
Track history (hours):
 
Tides and Currents Weather Stations Pressure Air Temp Water Temp Dewpoint Dewpoint Depression Visibility Wind Speed Wind Dir Waves Ship Positions

American Glory

Owner: AMERICAN CRUISE LINES INC, DELMAR, DE. More information available from US FCC via Universal Licensing System and Coast Guard Vessel Documentation Center.

Last reported at 2016-Aug-29 22:19 UTC. Time now 2016-Aug-29 23:36 UTC.
Position N 41°48' W 071°23'.

Length 54 m; draft 2.1 m.

Type: Ship. MMSI: 366858820.

Date/timePositionNaut miles runAvg speedWind from/ knotsBaromVisibWave heightAir tempDewpointWater temp
2016-Aug-29 22:19N 41°48' W 071°23'7 9.2
2016-Aug-29 21:34N 41°42' W 071°19'3 0.6
2016-Aug-29 16:04N 41°39' W 071°18'33 2.6
2016-Aug-29 03:30N 41°27' W 070°36'  
2016-Aug-26 04:33N 41°50' W 070°29'28 9.0
2016-Aug-26 01:29N 42°16' W 070°42'9 9.6
2016-Aug-26 00:33N 42°19' W 070°53'7 7.1
2016-Aug-25 23:33N 42°21' W 071°03'0 0.0
2016-Aug-25 22:33N 42°21' W 071°03'0 0.0
2016-Aug-25 21:33N 42°21' W 071°03'0 0.0
2016-Aug-25 20:33N 42°21' W 071°03'0 0.0
2016-Aug-25 19:33N 42°21' W 071°03'0 0.0
2016-Aug-25 18:33N 42°21' W 071°03'0 0.0
2016-Aug-25 17:33N 42°21' W 071°03'0 0.0
2016-Aug-25 16:33N 42°21' W 071°03'0 0.0
2016-Aug-25 15:33N 42°21' W 071°03'0 0.0
2016-Aug-25 14:33N 42°21' W 071°03'0 0.0
2016-Aug-25 13:33N 42°21' W 071°03'0 0.0
2016-Aug-25 12:33N 42°21' W 071°03'0 0.0
2016-Aug-25 11:33N 42°21' W 071°03'0 0.0
2016-Aug-25 10:33N 42°21' W 071°03'3 3.4
2016-Aug-25 09:33N 42°20' W 070°58'8 8.3
2016-Aug-25 08:33N 42°26' W 070°50'9 9.4
2016-Aug-25 07:33N 42°32' W 070°41'9 9.4
2016-Aug-25 06:33N 42°39' W 070°32'19 9.6
2016-Aug-25 04:33N 42°56' W 070°21'  

Dump ship's entire track history